sensor_id;sensor_type;location;lat;lon;timestamp;P1;durP1;ratioP1;P2;durP2;ratioP2
18338;SDS011;9295;44.484;11.240;2023-04-22T00:00:57;21.17;;;14.13;;
18338;SDS011;9295;44.484;11.240;2023-04-22T00:03:28;25.03;;;14.27;;
18338;SDS011;9295;44.484;11.240;2023-04-22T00:05:57;22.17;;;15.07;;
18338;SDS011;9295;44.484;11.240;2023-04-22T00:08:26;19.90;;;14.67;;
18338;SDS011;9295;44.484;11.240;2023-04-22T00:10:54;22.23;;;15.03;;
18338;SDS011;9295;44.484;11.240;2023-04-22T00:13:23;22.60;;;15.40;;
18338;SDS011;9295;44.484;11.240;2023-04-22T00:15:51;23.90;;;16.33;;
18338;SDS011;9295;44.484;11.240;2023-04-22T00:18:20;25.73;;;15.63;;
18338;SDS011;9295;44.484;11.240;2023-04-22T00:20:50;25.90;;;16.83;;
18338;SDS011;9295;44.484;11.240;2023-04-22T00:23:18;20.40;;;15.90;;
18338;SDS011;9295;44.484;11.240;2023-04-22T00:25:46;25.80;;;15.30;;
18338;SDS011;9295;44.484;11.240;2023-04-22T00:28:15;28.30;;;17.30;;
18338;SDS011;9295;44.484;11.240;2023-04-22T00:30:43;28.37;;;17.93;;
18338;SDS011;9295;44.484;11.240;2023-04-22T00:33:11;23.13;;;16.50;;
18338;SDS011;9295;44.484;11.240;2023-04-22T00:35:41;25.83;;;16.43;;
18338;SDS011;9295;44.484;11.240;2023-04-22T00:38:11;21.43;;;16.37;;
18338;SDS011;9295;44.484;11.240;2023-04-22T00:40:39;19.93;;;15.40;;
18338;SDS011;9295;44.484;11.240;2023-04-22T00:43:08;21.97;;;14.90;;
18338;SDS011;9295;44.484;11.240;2023-04-22T00:45:36;16.73;;;13.60;;
18338;SDS011;9295;44.484;11.240;2023-04-22T00:48:05;19.33;;;14.27;;
18338;SDS011;9295;44.484;11.240;2023-04-22T00:50:35;28.27;;;15.60;;
18338;SDS011;9295;44.484;11.240;2023-04-22T00:53:03;23.70;;;14.47;;
18338;SDS011;9295;44.484;11.240;2023-04-22T00:55:33;19.77;;;13.90;;
18338;SDS011;9295;44.484;11.240;2023-04-22T00:58:02;21.00;;;14.50;;
18338;SDS011;9295;44.484;11.240;2023-04-22T01:00:31;19.70;;;13.13;;
18338;SDS011;9295;44.484;11.240;2023-04-22T01:03:00;18.77;;;14.40;;
18338;SDS011;9295;44.484;11.240;2023-04-22T01:05:29;18.93;;;13.60;;
18338;SDS011;9295;44.484;11.240;2023-04-22T01:07:58;18.37;;;13.50;;
18338;SDS011;9295;44.484;11.240;2023-04-22T01:10:26;22.50;;;14.20;;
18338;SDS011;9295;44.484;11.240;2023-04-22T01:12:56;19.73;;;14.67;;
18338;SDS011;9295;44.484;11.240;2023-04-22T01:15:24;18.70;;;14.27;;
18338;SDS011;9295;44.484;11.240;2023-04-22T01:17:54;23.57;;;13.97;;
18338;SDS011;9295;44.484;11.240;2023-04-22T01:20:23;21.10;;;14.00;;
18338;SDS011;9295;44.484;11.240;2023-04-22T01:22:55;19.10;;;14.13;;
18338;SDS011;9295;44.484;11.240;2023-04-22T01:25:26;22.60;;;15.80;;
18338;SDS011;9295;44.484;11.240;2023-04-22T01:27:54;20.93;;;15.47;;
18338;SDS011;9295;44.484;11.240;2023-04-22T01:30:23;22.70;;;16.20;;
18338;SDS011;9295;44.484;11.240;2023-04-22T01:32:52;22.50;;;16.80;;
18338;SDS011;9295;44.484;11.240;2023-04-22T01:35:21;24.37;;;17.80;;
18338;SDS011;9295;44.484;11.240;2023-04-22T01:37:49;23.10;;;15.43;;
18338;SDS011;9295;44.484;11.240;2023-04-22T01:40:18;20.10;;;14.27;;
18338;SDS011;9295;44.484;11.240;2023-04-22T01:42:50;20.83;;;15.90;;
18338;SDS011;9295;44.484;11.240;2023-04-22T01:45:19;19.80;;;15.03;;
18338;SDS011;9295;44.484;11.240;2023-04-22T01:47:47;22.53;;;16.17;;
18338;SDS011;9295;44.484;11.240;2023-04-22T01:50:16;23.23;;;17.40;;
18338;SDS011;9295;44.484;11.240;2023-04-22T01:52:44;23.47;;;16.77;;
18338;SDS011;9295;44.484;11.240;2023-04-22T01:55:13;26.27;;;16.70;;
18338;SDS011;9295;44.484;11.240;2023-04-22T01:57:42;27.13;;;18.57;;
18338;SDS011;9295;44.484;11.240;2023-04-22T02:00:13;25.73;;;18.00;;
18338;SDS011;9295;44.484;11.240;2023-04-22T02:02:45;26.57;;;18.00;;
18338;SDS011;9295;44.484;11.240;2023-04-22T02:05:14;24.50;;;17.40;;
18338;SDS011;9295;44.484;11.240;2023-04-22T02:07:44;24.63;;;18.13;;
18338;SDS011;9295;44.484;11.240;2023-04-22T02:10:15;30.30;;;19.10;;
18338;SDS011;9295;44.484;11.240;2023-04-22T02:12:43;28.23;;;17.53;;
18338;SDS011;9295;44.484;11.240;2023-04-22T02:15:14;23.70;;;16.23;;
18338;SDS011;9295;44.484;11.240;2023-04-22T02:17:43;24.80;;;18.00;;
18338;SDS011;9295;44.484;11.240;2023-04-22T02:20:11;27.77;;;18.33;;
18338;SDS011;9295;44.484;11.240;2023-04-22T02:22:40;22.63;;;16.17;;
18338;SDS011;9295;44.484;11.240;2023-04-22T02:25:11;26.77;;;17.90;;
18338;SDS011;9295;44.484;11.240;2023-04-22T02:27:41;27.57;;;17.90;;
18338;SDS011;9295;44.484;11.240;2023-04-22T02:30:10;25.87;;;18.23;;
18338;SDS011;9295;44.484;11.240;2023-04-22T02:32:40;29.80;;;20.37;;
18338;SDS011;9295;44.484;11.240;2023-04-22T02:35:08;27.60;;;19.17;;
18338;SDS011;9295;44.484;11.240;2023-04-22T02:37:37;31.03;;;19.30;;
18338;SDS011;9295;44.484;11.240;2023-04-22T02:40:06;29.60;;;20.20;;
18338;SDS011;9295;44.484;11.240;2023-04-22T02:42:35;29.60;;;20.53;;
18338;SDS011;9295;44.484;11.240;2023-04-22T02:45:04;28.97;;;20.17;;
18338;SDS011;9295;44.484;11.240;2023-04-22T02:47:34;28.10;;;17.97;;
18338;SDS011;9295;44.484;11.240;2023-04-22T02:50:05;31.10;;;19.57;;
18338;SDS011;9295;44.484;11.240;2023-04-22T02:52:34;26.53;;;18.87;;
18338;SDS011;9295;44.484;11.240;2023-04-22T02:55:02;23.93;;;18.43;;
18338;SDS011;9295;44.484;11.240;2023-04-22T02:57:31;30.03;;;18.60;;
18338;SDS011;9295;44.484;11.240;2023-04-22T03:00:00;28.70;;;19.33;;
18338;SDS011;9295;44.484;11.240;2023-04-22T03:02:29;24.90;;;18.43;;
18338;SDS011;9295;44.484;11.240;2023-04-22T03:05:12;31.50;;;19.37;;
18338;SDS011;9295;44.484;11.240;2023-04-22T03:07:41;26.83;;;19.67;;
18338;SDS011;9295;44.484;11.240;2023-04-22T03:10:10;28.40;;;20.17;;
18338;SDS011;9295;44.484;11.240;2023-04-22T03:12:39;31.83;;;21.87;;
18338;SDS011;9295;44.484;11.240;2023-04-22T03:15:07;30.73;;;21.30;;
18338;SDS011;9295;44.484;11.240;2023-04-22T03:17:36;34.17;;;22.50;;
18338;SDS011;9295;44.484;11.240;2023-04-22T03:20:09;32.30;;;21.87;;
18338;SDS011;9295;44.484;11.240;2023-04-22T03:22:39;33.43;;;22.60;;
18338;SDS011;9295;44.484;11.240;2023-04-22T03:25:10;28.80;;;19.63;;
18338;SDS011;9295;44.484;11.240;2023-04-22T03:27:39;28.47;;;19.63;;
18338;SDS011;9295;44.484;11.240;2023-04-22T03:30:09;32.40;;;21.27;;
18338;SDS011;9295;44.484;11.240;2023-04-22T03:32:37;31.33;;;20.60;;
18338;SDS011;9295;44.484;11.240;2023-04-22T03:35:28;29.20;;;19.30;;
18338;SDS011;9295;44.484;11.240;2023-04-22T03:38:00;31.60;;;20.53;;
18338;SDS011;9295;44.484;11.240;2023-04-22T03:40:34;33.27;;;21.07;;
18338;SDS011;9295;44.484;11.240;2023-04-22T03:43:10;33.50;;;22.50;;
18338;SDS011;9295;44.484;11.240;2023-04-22T03:45:39;35.53;;;23.70;;
18338;SDS011;9295;44.484;11.240;2023-04-22T03:48:18;35.23;;;23.40;;
18338;SDS011;9295;44.484;11.240;2023-04-22T03:50:50;31.90;;;23.00;;
18338;SDS011;9295;44.484;11.240;2023-04-22T03:53:19;35.90;;;24.00;;
18338;SDS011;9295;44.484;11.240;2023-04-22T03:55:48;33.90;;;22.57;;
18338;SDS011;9295;44.484;11.240;2023-04-22T03:58:17;39.43;;;23.53;;
18338;SDS011;9295;44.484;11.240;2023-04-22T04:00:47;40.40;;;23.50;;
18338;SDS011;9295;44.484;11.240;2023-04-22T04:03:17;32.67;;;22.43;;
18338;SDS011;9295;44.484;11.240;2023-04-22T04:05:49;36.30;;;23.70;;
18338;SDS011;9295;44.484;11.240;2023-04-22T04:08:21;34.93;;;23.33;;
18338;SDS011;9295;44.484;11.240;2023-04-22T04:10:49;40.27;;;25.30;;
18338;SDS011;9295;44.484;11.240;2023-04-22T04:13:18;39.03;;;25.50;;
18338;SDS011;9295;44.484;11.240;2023-04-22T04:16:02;37.20;;;23.70;;
18338;SDS011;9295;44.484;11.240;2023-04-22T04:18:31;36.07;;;23.93;;
18338;SDS011;9295;44.484;11.240;2023-04-22T04:20:59;37.10;;;23.70;;
18338;SDS011;9295;44.484;11.240;2023-04-22T04:23:32;40.33;;;24.30;;
18338;SDS011;9295;44.484;11.240;2023-04-22T04:26:01;40.10;;;24.90;;
18338;SDS011;9295;44.484;11.240;2023-04-22T04:28:33;38.57;;;24.20;;
18338;SDS011;9295;44.484;11.240;2023-04-22T04:31:02;39.77;;;24.20;;
18338;SDS011;9295;44.484;11.240;2023-04-22T04:33:31;38.87;;;24.30;;
18338;SDS011;9295;44.484;11.240;2023-04-22T04:36:00;36.40;;;22.90;;
18338;SDS011;9295;44.484;11.240;2023-04-22T04:38:33;38.30;;;25.00;;
18338;SDS011;9295;44.484;11.240;2023-04-22T04:41:01;37.30;;;22.60;;
18338;SDS011;9295;44.484;11.240;2023-04-22T04:43:31;36.80;;;22.60;;
18338;SDS011;9295;44.484;11.240;2023-04-22T04:46:24;39.70;;;25.03;;
18338;SDS011;9295;44.484;11.240;2023-04-22T04:48:55;32.37;;;23.07;;
18338;SDS011;9295;44.484;11.240;2023-04-22T04:51:26;36.73;;;23.67;;
18338;SDS011;9295;44.484;11.240;2023-04-22T04:53:59;37.90;;;25.63;;
18338;SDS011;9295;44.484;11.240;2023-04-22T04:56:33;39.33;;;24.77;;
18338;SDS011;9295;44.484;11.240;2023-04-22T04:59:02;37.80;;;24.50;;
18338;SDS011;9295;44.484;11.240;2023-04-22T05:01:32;39.57;;;24.50;;
18338;SDS011;9295;44.484;11.240;2023-04-22T05:04:05;36.80;;;23.80;;
18338;SDS011;9295;44.484;11.240;2023-04-22T05:06:37;30.93;;;22.30;;
18338;SDS011;9295;44.484;11.240;2023-04-22T05:09:07;31.13;;;22.00;;
18338;SDS011;9295;44.484;11.240;2023-04-22T05:11:36;35.03;;;22.90;;
18338;SDS011;9295;44.484;11.240;2023-04-22T05:14:11;30.13;;;20.13;;
18338;SDS011;9295;44.484;11.240;2023-04-22T05:16:41;28.33;;;21.47;;
18338;SDS011;9295;44.484;11.240;2023-04-22T05:19:09;35.13;;;22.60;;
18338;SDS011;9295;44.484;11.240;2023-04-22T05:21:38;33.77;;;21.27;;
18338;SDS011;9295;44.484;11.240;2023-04-22T05:24:08;34.97;;;22.87;;
18338;SDS011;9295;44.484;11.240;2023-04-22T05:26:37;31.77;;;21.70;;
18338;SDS011;9295;44.484;11.240;2023-04-22T05:29:12;40.40;;;23.50;;
18338;SDS011;9295;44.484;11.240;2023-04-22T05:31:41;34.47;;;24.37;;
18338;SDS011;9295;44.484;11.240;2023-04-22T05:34:09;31.00;;;21.37;;
18338;SDS011;9295;44.484;11.240;2023-04-22T05:36:38;33.47;;;20.37;;
18338;SDS011;9295;44.484;11.240;2023-04-22T05:39:08;25.97;;;18.37;;
18338;SDS011;9295;44.484;11.240;2023-04-22T05:41:37;23.30;;;16.10;;
18338;SDS011;9295;44.484;11.240;2023-04-22T05:44:08;20.67;;;14.47;;
18338;SDS011;9295;44.484;11.240;2023-04-22T05:46:37;21.83;;;15.60;;
18338;SDS011;9295;44.484;11.240;2023-04-22T05:49:06;28.07;;;15.60;;
18338;SDS011;9295;44.484;11.240;2023-04-22T05:51:52;21.43;;;14.60;;
18338;SDS011;9295;44.484;11.240;2023-04-22T05:54:27;17.73;;;13.43;;
18338;SDS011;9295;44.484;11.240;2023-04-22T05:56:56;19.33;;;13.70;;
18338;SDS011;9295;44.484;11.240;2023-04-22T05:59:25;21.03;;;13.53;;
18338;SDS011;9295;44.484;11.240;2023-04-22T06:01:54;17.83;;;12.53;;
18338;SDS011;9295;44.484;11.240;2023-04-22T06:04:23;17.37;;;12.90;;
18338;SDS011;9295;44.484;11.240;2023-04-22T06:06:52;20.30;;;13.40;;
18338;SDS011;9295;44.484;11.240;2023-04-22T06:09:21;21.70;;;13.43;;
18338;SDS011;9295;44.484;11.240;2023-04-22T06:11:50;18.93;;;13.13;;
18338;SDS011;9295;44.484;11.240;2023-04-22T06:14:19;17.90;;;12.83;;
18338;SDS011;9295;44.484;11.240;2023-04-22T06:16:48;18.43;;;13.43;;
18338;SDS011;9295;44.484;11.240;2023-04-22T06:19:18;20.80;;;12.70;;
18338;SDS011;9295;44.484;11.240;2023-04-22T06:21:47;17.70;;;13.50;;
18338;SDS011;9295;44.484;11.240;2023-04-22T06:24:15;22.50;;;13.10;;
18338;SDS011;9295;44.484;11.240;2023-04-22T06:26:43;22.53;;;13.60;;
18338;SDS011;9295;44.484;11.240;2023-04-22T06:29:13;17.63;;;13.90;;
18338;SDS011;9295;44.484;11.240;2023-04-22T06:31:42;16.93;;;12.97;;
18338;SDS011;9295;44.484;11.240;2023-04-22T06:34:10;16.27;;;12.77;;
18338;SDS011;9295;44.484;11.240;2023-04-22T06:36:39;18.33;;;13.23;;
18338;SDS011;9295;44.484;11.240;2023-04-22T06:39:08;17.20;;;13.37;;
18338;SDS011;9295;44.484;11.240;2023-04-22T06:42:00;21.20;;;14.03;;
18338;SDS011;9295;44.484;11.240;2023-04-22T06:44:41;15.60;;;12.47;;
18338;SDS011;9295;44.484;11.240;2023-04-22T06:47:20;15.77;;;12.77;;
18338;SDS011;9295;44.484;11.240;2023-04-22T06:49:56;16.63;;;13.23;;
18338;SDS011;9295;44.484;11.240;2023-04-22T06:52:29;17.27;;;13.67;;
18338;SDS011;9295;44.484;11.240;2023-04-22T06:54:57;20.20;;;14.90;;
18338;SDS011;9295;44.484;11.240;2023-04-22T06:57:26;18.13;;;13.30;;
18338;SDS011;9295;44.484;11.240;2023-04-22T06:59:56;18.27;;;14.10;;
18338;SDS011;9295;44.484;11.240;2023-04-22T07:02:26;18.80;;;15.53;;
18338;SDS011;9295;44.484;11.240;2023-04-22T07:04:57;19.37;;;15.00;;
18338;SDS011;9295;44.484;11.240;2023-04-22T07:07:25;20.03;;;15.60;;
18338;SDS011;9295;44.484;11.240;2023-04-22T07:09:54;22.77;;;17.23;;
18338;SDS011;9295;44.484;11.240;2023-04-22T07:12:26;23.90;;;16.60;;
18338;SDS011;9295;44.484;11.240;2023-04-22T07:14:54;21.33;;;16.60;;
18338;SDS011;9295;44.484;11.240;2023-04-22T07:17:24;23.40;;;17.30;;
18338;SDS011;9295;44.484;11.240;2023-04-22T07:19:52;23.80;;;16.53;;
18338;SDS011;9295;44.484;11.240;2023-04-22T07:22:20;28.43;;;19.10;;
18338;SDS011;9295;44.484;11.240;2023-04-22T07:24:49;23.50;;;18.43;;
18338;SDS011;9295;44.484;11.240;2023-04-22T07:27:17;24.60;;;19.10;;
18338;SDS011;9295;44.484;11.240;2023-04-22T07:29:46;26.07;;;19.80;;
18338;SDS011;9295;44.484;11.240;2023-04-22T07:32:14;27.30;;;19.80;;
18338;SDS011;9295;44.484;11.240;2023-04-22T07:34:44;25.63;;;18.30;;
18338;SDS011;9295;44.484;11.240;2023-04-22T07:37:12;25.67;;;19.00;;
18338;SDS011;9295;44.484;11.240;2023-04-22T07:39:40;28.17;;;18.43;;
18338;SDS011;9295;44.484;11.240;2023-04-22T07:42:09;24.70;;;17.97;;
18338;SDS011;9295;44.484;11.240;2023-04-22T07:44:38;25.07;;;18.63;;
18338;SDS011;9295;44.484;11.240;2023-04-22T07:47:06;23.53;;;16.90;;
18338;SDS011;9295;44.484;11.240;2023-04-22T07:49:35;28.87;;;18.57;;
18338;SDS011;9295;44.484;11.240;2023-04-22T07:52:05;28.40;;;18.60;;
18338;SDS011;9295;44.484;11.240;2023-04-22T07:54:33;26.57;;;18.87;;
18338;SDS011;9295;44.484;11.240;2023-04-22T07:57:02;27.20;;;19.10;;
18338;SDS011;9295;44.484;11.240;2023-04-22T07:59:30;27.10;;;20.00;;
18338;SDS011;9295;44.484;11.240;2023-04-22T08:01:58;28.17;;;20.73;;
18338;SDS011;9295;44.484;11.240;2023-04-22T08:04:27;28.23;;;18.77;;
18338;SDS011;9295;44.484;11.240;2023-04-22T08:06:56;25.30;;;19.60;;
18338;SDS011;9295;44.484;11.240;2023-04-22T08:09:27;27.50;;;20.60;;
18338;SDS011;9295;44.484;11.240;2023-04-22T08:11:55;38.03;;;21.53;;
18338;SDS011;9295;44.484;11.240;2023-04-22T08:14:24;27.23;;;20.40;;
18338;SDS011;9295;44.484;11.240;2023-04-22T08:16:52;30.30;;;20.83;;
18338;SDS011;9295;44.484;11.240;2023-04-22T08:19:21;28.93;;;20.97;;
18338;SDS011;9295;44.484;11.240;2023-04-22T08:21:49;31.90;;;22.00;;
18338;SDS011;9295;44.484;11.240;2023-04-22T08:24:17;27.83;;;19.17;;
18338;SDS011;9295;44.484;11.240;2023-04-22T08:26:47;30.17;;;20.17;;
18338;SDS011;9295;44.484;11.240;2023-04-22T08:29:16;30.77;;;20.20;;
18338;SDS011;9295;44.484;11.240;2023-04-22T08:31:44;28.63;;;19.27;;
18338;SDS011;9295;44.484;11.240;2023-04-22T08:34:13;30.60;;;21.37;;
18338;SDS011;9295;44.484;11.240;2023-04-22T08:36:41;28.47;;;20.10;;
18338;SDS011;9295;44.484;11.240;2023-04-22T08:39:10;29.43;;;21.10;;
18338;SDS011;9295;44.484;11.240;2023-04-22T08:41:38;31.80;;;21.77;;
18338;SDS011;9295;44.484;11.240;2023-04-22T08:44:11;33.47;;;21.83;;
18338;SDS011;9295;44.484;11.240;2023-04-22T08:46:42;35.43;;;23.80;;
18338;SDS011;9295;44.484;11.240;2023-04-22T08:49:12;32.47;;;22.27;;
18338;SDS011;9295;44.484;11.240;2023-04-22T08:51:42;38.07;;;24.30;;
18338;SDS011;9295;44.484;11.240;2023-04-22T08:54:11;34.53;;;22.90;;
18338;SDS011;9295;44.484;11.240;2023-04-22T08:56:40;34.40;;;21.97;;
18338;SDS011;9295;44.484;11.240;2023-04-22T08:59:12;31.87;;;21.83;;
18338;SDS011;9295;44.484;11.240;2023-04-22T09:01:41;30.97;;;21.80;;
18338;SDS011;9295;44.484;11.240;2023-04-22T09:04:09;34.20;;;22.87;;
18338;SDS011;9295;44.484;11.240;2023-04-22T09:06:41;29.10;;;20.60;;
18338;SDS011;9295;44.484;11.240;2023-04-22T09:09:10;34.03;;;23.17;;
18338;SDS011;9295;44.484;11.240;2023-04-22T09:11:38;30.07;;;22.00;;
18338;SDS011;9295;44.484;11.240;2023-04-22T09:14:06;29.73;;;20.70;;
18338;SDS011;9295;44.484;11.240;2023-04-22T09:16:40;31.83;;;21.30;;
18338;SDS011;9295;44.484;11.240;2023-04-22T09:19:13;30.30;;;20.17;;
18338;SDS011;9295;44.484;11.240;2023-04-22T09:21:42;31.83;;;21.97;;
18338;SDS011;9295;44.484;11.240;2023-04-22T09:24:15;30.50;;;21.10;;
18338;SDS011;9295;44.484;11.240;2023-04-22T09:26:46;32.67;;;21.60;;
18338;SDS011;9295;44.484;11.240;2023-04-22T09:29:16;31.57;;;22.60;;
18338;SDS011;9295;44.484;11.240;2023-04-22T09:31:48;35.30;;;22.00;;
18338;SDS011;9295;44.484;11.240;2023-04-22T09:34:17;29.17;;;19.23;;
18338;SDS011;9295;44.484;11.240;2023-04-22T09:36:45;34.00;;;22.23;;
18338;SDS011;9295;44.484;11.240;2023-04-22T09:39:16;25.50;;;18.07;;
18338;SDS011;9295;44.484;11.240;2023-04-22T09:41:45;31.13;;;21.27;;
18338;SDS011;9295;44.484;11.240;2023-04-22T09:44:22;29.07;;;19.63;;
18338;SDS011;9295;44.484;11.240;2023-04-22T09:46:55;33.37;;;21.17;;
18338;SDS011;9295;44.484;11.240;2023-04-22T09:49:26;29.37;;;19.63;;
18338;SDS011;9295;44.484;11.240;2023-04-22T09:51:55;24.03;;;16.57;;
18338;SDS011;9295;44.484;11.240;2023-04-22T09:54:23;29.00;;;20.20;;
18338;SDS011;9295;44.484;11.240;2023-04-22T09:56:52;32.03;;;21.50;;
18338;SDS011;9295;44.484;11.240;2023-04-22T09:59:21;32.97;;;22.03;;
18338;SDS011;9295;44.484;11.240;2023-04-22T10:01:51;25.30;;;17.43;;
18338;SDS011;9295;44.484;11.240;2023-04-22T10:04:21;27.67;;;18.93;;
18338;SDS011;9295;44.484;11.240;2023-04-22T10:06:52;28.23;;;20.70;;
18338;SDS011;9295;44.484;11.240;2023-04-22T10:09:22;30.60;;;19.37;;
18338;SDS011;9295;44.484;11.240;2023-04-22T10:11:52;26.10;;;18.10;;
18338;SDS011;9295;44.484;11.240;2023-04-22T10:14:22;25.13;;;18.00;;
18338;SDS011;9295;44.484;11.240;2023-04-22T10:16:52;24.03;;;17.77;;
18338;SDS011;9295;44.484;11.240;2023-04-22T10:19:25;32.90;;;18.03;;
18338;SDS011;9295;44.484;11.240;2023-04-22T10:21:55;22.70;;;15.50;;
18338;SDS011;9295;44.484;11.240;2023-04-22T10:24:25;20.00;;;14.60;;
18338;SDS011;9295;44.484;11.240;2023-04-22T10:26:55;18.60;;;12.30;;
18338;SDS011;9295;44.484;11.240;2023-04-22T10:29:26;19.20;;;14.17;;
18338;SDS011;9295;44.484;11.240;2023-04-22T10:32:03;24.03;;;17.87;;
18338;SDS011;9295;44.484;11.240;2023-04-22T10:34:37;30.07;;;17.33;;
18338;SDS011;9295;44.484;11.240;2023-04-22T10:37:05;35.20;;;21.67;;
18338;SDS011;9295;44.484;11.240;2023-04-22T10:39:35;27.20;;;17.80;;
18338;SDS011;9295;44.484;11.240;2023-04-22T10:42:06;25.27;;;15.73;;
18338;SDS011;9295;44.484;11.240;2023-04-22T10:44:48;20.87;;;15.57;;
18338;SDS011;9295;44.484;11.240;2023-04-22T10:47:24;23.00;;;16.73;;
18338;SDS011;9295;44.484;11.240;2023-04-22T10:52:53;24.90;;;17.40;;
18338;SDS011;9295;44.484;11.240;2023-04-22T10:55:22;25.10;;;17.07;;
18338;SDS011;9295;44.484;11.240;2023-04-22T10:57:52;26.07;;;16.90;;
18338;SDS011;9295;44.484;11.240;2023-04-22T11:00:22;23.67;;;16.60;;
18338;SDS011;9295;44.484;11.240;2023-04-22T11:03:07;21.00;;;15.17;;
18338;SDS011;9295;44.484;11.240;2023-04-22T11:05:38;26.67;;;17.33;;
18338;SDS011;9295;44.484;11.240;2023-04-22T11:08:10;26.60;;;17.00;;
18338;SDS011;9295;44.484;11.240;2023-04-22T11:10:42;19.07;;;13.90;;
18338;SDS011;9295;44.484;11.240;2023-04-22T11:13:12;24.07;;;15.00;;
18338;SDS011;9295;44.484;11.240;2023-04-22T11:15:42;20.97;;;15.57;;
18338;SDS011;9295;44.484;11.240;2023-04-22T11:18:13;22.63;;;16.00;;
18338;SDS011;9295;44.484;11.240;2023-04-22T11:20:46;23.20;;;16.30;;
18338;SDS011;9295;44.484;11.240;2023-04-22T11:23:22;23.50;;;15.50;;
18338;SDS011;9295;44.484;11.240;2023-04-22T11:25:55;23.80;;;15.43;;
18338;SDS011;9295;44.484;11.240;2023-04-22T11:28:24;29.47;;;16.30;;
18338;SDS011;9295;44.484;11.240;2023-04-22T11:31:00;21.47;;;14.97;;
18338;SDS011;9295;44.484;11.240;2023-04-22T11:33:30;27.37;;;15.90;;
18338;SDS011;9295;44.484;11.240;2023-04-22T11:36:01;26.00;;;15.17;;
18338;SDS011;9295;44.484;11.240;2023-04-22T11:38:29;20.90;;;15.17;;
18338;SDS011;9295;44.484;11.240;2023-04-22T11:40:58;26.70;;;16.67;;
18338;SDS011;9295;44.484;11.240;2023-04-22T11:43:26;22.33;;;16.97;;
18338;SDS011;9295;44.484;11.240;2023-04-22T11:45:55;22.67;;;15.77;;
18338;SDS011;9295;44.484;11.240;2023-04-22T11:48:24;22.30;;;15.97;;
18338;SDS011;9295;44.484;11.240;2023-04-22T11:51:07;22.17;;;15.17;;
18338;SDS011;9295;44.484;11.240;2023-04-22T11:53:37;22.00;;;15.00;;
18338;SDS011;9295;44.484;11.240;2023-04-22T11:56:06;18.23;;;13.30;;
18338;SDS011;9295;44.484;11.240;2023-04-22T11:58:37;18.43;;;13.73;;
18338;SDS011;9295;44.484;11.240;2023-04-22T12:01:10;22.30;;;15.10;;
18338;SDS011;9295;44.484;11.240;2023-04-22T12:03:40;19.20;;;13.30;;
18338;SDS011;9295;44.484;11.240;2023-04-22T12:06:10;18.53;;;13.77;;
18338;SDS011;9295;44.484;11.240;2023-04-22T12:08:38;21.07;;;14.50;;
18338;SDS011;9295;44.484;11.240;2023-04-22T12:11:09;20.97;;;14.73;;
18338;SDS011;9295;44.484;11.240;2023-04-22T12:13:42;14.37;;;11.03;;
18338;SDS011;9295;44.484;11.240;2023-04-22T12:16:12;25.73;;;11.80;;
18338;SDS011;9295;44.484;11.240;2023-04-22T12:18:46;20.57;;;14.53;;
18338;SDS011;9295;44.484;11.240;2023-04-22T12:21:18;20.37;;;14.37;;
18338;SDS011;9295;44.484;11.240;2023-04-22T12:23:49;22.90;;;15.80;;
18338;SDS011;9295;44.484;11.240;2023-04-22T12:26:19;20.87;;;15.40;;
18338;SDS011;9295;44.484;11.240;2023-04-22T12:28:52;30.50;;;19.70;;
18338;SDS011;9295;44.484;11.240;2023-04-22T12:31:22;27.27;;;17.27;;
18338;SDS011;9295;44.484;11.240;2023-04-22T12:33:51;24.90;;;16.13;;
18338;SDS011;9295;44.484;11.240;2023-04-22T12:36:21;23.70;;;16.90;;
18338;SDS011;9295;44.484;11.240;2023-04-22T12:38:50;25.27;;;16.77;;
18338;SDS011;9295;44.484;11.240;2023-04-22T12:41:19;28.13;;;17.43;;
18338;SDS011;9295;44.484;11.240;2023-04-22T12:43:48;24.23;;;15.40;;
18338;SDS011;9295;44.484;11.240;2023-04-22T12:46:18;25.13;;;18.33;;
18338;SDS011;9295;44.484;11.240;2023-04-22T12:48:46;27.10;;;17.60;;
18338;SDS011;9295;44.484;11.240;2023-04-22T12:51:15;25.33;;;18.23;;
18338;SDS011;9295;44.484;11.240;2023-04-22T12:53:47;26.03;;;16.00;;
18338;SDS011;9295;44.484;11.240;2023-04-22T12:56:15;24.53;;;16.23;;
18338;SDS011;9295;44.484;11.240;2023-04-22T12:58:44;20.43;;;15.23;;
18338;SDS011;9295;44.484;11.240;2023-04-22T13:01:13;21.10;;;15.03;;
18338;SDS011;9295;44.484;11.240;2023-04-22T13:03:42;22.93;;;15.60;;
18338;SDS011;9295;44.484;11.240;2023-04-22T13:06:10;22.13;;;14.80;;
18338;SDS011;9295;44.484;11.240;2023-04-22T13:08:39;23.67;;;16.10;;
18338;SDS011;9295;44.484;11.240;2023-04-22T13:11:08;23.07;;;16.60;;
18338;SDS011;9295;44.484;11.240;2023-04-22T13:13:37;23.10;;;16.43;;
18338;SDS011;9295;44.484;11.240;2023-04-22T13:16:05;23.00;;;15.93;;
18338;SDS011;9295;44.484;11.240;2023-04-22T13:18:34;25.93;;;15.77;;
18338;SDS011;9295;44.484;11.240;2023-04-22T13:21:03;23.40;;;15.70;;
18338;SDS011;9295;44.484;11.240;2023-04-22T13:23:32;24.40;;;15.97;;
18338;SDS011;9295;44.484;11.240;2023-04-22T13:26:01;22.30;;;15.50;;
18338;SDS011;9295;44.484;11.240;2023-04-22T13:28:31;25.70;;;17.03;;
18338;SDS011;9295;44.484;11.240;2023-04-22T13:30:59;20.83;;;14.90;;
18338;SDS011;9295;44.484;11.240;2023-04-22T13:33:28;23.90;;;15.60;;
18338;SDS011;9295;44.484;11.240;2023-04-22T13:35:56;21.70;;;13.73;;
18338;SDS011;9295;44.484;11.240;2023-04-22T13:38:24;19.30;;;13.80;;
18338;SDS011;9295;44.484;11.240;2023-04-22T13:40:53;28.00;;;15.20;;
18338;SDS011;9295;44.484;11.240;2023-04-22T13:43:22;20.70;;;15.20;;
18338;SDS011;9295;44.484;11.240;2023-04-22T13:45:52;23.73;;;16.00;;
18338;SDS011;9295;44.484;11.240;2023-04-22T13:48:20;23.73;;;16.30;;
18338;SDS011;9295;44.484;11.240;2023-04-22T13:50:48;20.47;;;14.73;;
18338;SDS011;9295;44.484;11.240;2023-04-22T13:53:17;22.70;;;14.03;;
18338;SDS011;9295;44.484;11.240;2023-04-22T13:55:45;20.90;;;15.63;;
18338;SDS011;9295;44.484;11.240;2023-04-22T13:58:13;20.43;;;14.37;;
18338;SDS011;9295;44.484;11.240;2023-04-22T14:00:42;21.00;;;14.83;;
18338;SDS011;9295;44.484;11.240;2023-04-22T14:03:12;20.63;;;13.73;;
18338;SDS011;9295;44.484;11.240;2023-04-22T14:05:40;21.33;;;12.70;;
18338;SDS011;9295;44.484;11.240;2023-04-22T14:08:09;21.33;;;14.40;;
18338;SDS011;9295;44.484;11.240;2023-04-22T14:10:38;20.30;;;13.63;;
18338;SDS011;9295;44.484;11.240;2023-04-22T14:13:06;18.63;;;13.43;;
18338;SDS011;9295;44.484;11.240;2023-04-22T14:15:35;20.13;;;14.10;;
18338;SDS011;9295;44.484;11.240;2023-04-22T14:18:04;18.43;;;13.20;;
18338;SDS011;9295;44.484;11.240;2023-04-22T14:20:34;20.63;;;14.73;;
18338;SDS011;9295;44.484;11.240;2023-04-22T14:23:03;20.90;;;14.40;;
18338;SDS011;9295;44.484;11.240;2023-04-22T14:25:31;27.30;;;16.20;;
18338;SDS011;9295;44.484;11.240;2023-04-22T14:28:00;21.07;;;13.60;;
18338;SDS011;9295;44.484;11.240;2023-04-22T14:30:29;27.90;;;15.20;;
18338;SDS011;9295;44.484;11.240;2023-04-22T14:32:57;24.80;;;14.57;;
18338;SDS011;9295;44.484;11.240;2023-04-22T14:35:26;23.63;;;14.30;;
18338;SDS011;9295;44.484;11.240;2023-04-22T14:37:55;20.53;;;13.50;;
18338;SDS011;9295;44.484;11.240;2023-04-22T14:40:24;17.30;;;13.67;;